createdAt,value
2022-12-08T00:02:17.333Z,3.80
2022-12-08T00:06:43.285Z,3.84
2022-12-08T00:10:49.741Z,3.81
2022-12-08T00:14:55.137Z,3.82
2022-12-08T00:18:58.146Z,3.82
2022-12-08T00:23:01.234Z,3.85
2022-12-08T00:27:04.267Z,3.88
2022-12-08T00:31:12.718Z,3.94
2022-12-08T00:35:15.901Z,3.95
2022-12-08T00:39:19.886Z,3.98
2022-12-08T00:43:22.885Z,3.99
2022-12-08T00:47:27.225Z,3.99
2022-12-08T00:51:30.427Z,3.99
2022-12-08T00:55:33.416Z,4.00
2022-12-08T00:59:36.465Z,3.98
2022-12-08T01:03:41.307Z,4.01
2022-12-08T01:07:44.461Z,3.99
2022-12-08T01:11:48.021Z,4.04
2022-12-08T01:15:51.105Z,4.01
2022-12-08T01:19:55.482Z,4.01
2022-12-08T01:24:00.786Z,4.05
2022-12-08T01:28:03.915Z,4.06
2022-12-08T01:32:06.995Z,4.08
2022-12-08T01:36:20.955Z,4.08
2022-12-08T01:40:24.174Z,4.08
2022-12-08T01:44:54.862Z,4.12
2022-12-08T01:49:04.491Z,4.12
2022-12-08T01:53:11.997Z,4.14
2022-12-08T01:57:19.698Z,4.15
2022-12-08T02:01:23.051Z,4.17
2022-12-08T02:05:29.151Z,4.14
2022-12-08T02:09:33.913Z,4.13
2022-12-08T02:13:37.112Z,4.13
2022-12-08T02:17:54.858Z,4.13
2022-12-08T02:22:02.277Z,4.15
2022-12-08T02:26:38.716Z,4.16
2022-12-08T02:30:52.465Z,4.14
2022-12-08T02:35:00.434Z,4.14
2022-12-08T02:39:12.181Z,4.12
2022-12-08T02:43:22.217Z,4.09
2022-12-08T02:47:27.648Z,4.10
2022-12-08T02:51:32.266Z,4.09
2022-12-08T02:55:47.651Z,4.10
2022-12-08T03:00:05.816Z,4.09
2022-12-08T03:04:16.226Z,4.12
2022-12-08T03:08:26.513Z,4.14
2022-12-08T03:12:34.069Z,4.13
2022-12-08T03:16:41.519Z,4.11
2022-12-08T03:20:45.997Z,4.13
2022-12-08T03:24:50.810Z,4.13
2022-12-08T03:28:56.143Z,4.12
2022-12-08T03:33:05.478Z,4.09
2022-12-08T03:37:08.712Z,4.14
2022-12-08T03:41:19.284Z,4.13
2022-12-08T03:45:22.605Z,4.14
2022-12-08T03:49:26.013Z,4.11
2022-12-08T03:53:29.033Z,4.06
2022-12-08T03:57:33.429Z,4.05
2022-12-08T04:01:36.540Z,4.04
2022-12-08T04:05:39.642Z,3.99
2022-12-08T04:09:42.743Z,4.01
2022-12-08T04:13:47.938Z,3.98
2022-12-08T04:17:51.019Z,3.99
2022-12-08T04:21:54.470Z,4.02
2022-12-08T04:25:57.588Z,4.03
2022-12-08T04:30:02.307Z,4.04
2022-12-08T04:34:05.678Z,4.01
2022-12-08T04:38:08.728Z,4.05
2022-12-08T04:42:11.775Z,4.02
2022-12-08T04:46:16.322Z,4.04
2022-12-08T04:50:19.643Z,4.06
2022-12-08T04:54:22.736Z,4.02
2022-12-08T04:58:25.928Z,4.03
2022-12-08T05:02:30.472Z,4.00
2022-12-08T05:06:38.697Z,3.97
2022-12-08T05:10:45.801Z,3.91
2022-12-08T05:14:50.797Z,3.92
2022-12-08T05:18:55.664Z,3.93
2022-12-08T05:22:58.848Z,3.90
2022-12-08T05:27:01.991Z,3.81
2022-12-08T05:31:05.927Z,3.79
2022-12-08T05:35:11.357Z,3.76
2022-12-08T05:39:14.845Z,3.77
2022-12-08T05:43:17.888Z,3.74
2022-12-08T05:47:21.029Z,3.73
2022-12-08T05:51:25.604Z,3.75
2022-12-08T05:55:28.678Z,3.71
2022-12-08T05:59:31.705Z,3.70
2022-12-08T06:03:34.935Z,3.71
2022-12-08T06:07:40.399Z,3.72
2022-12-08T06:11:43.846Z,3.72
2022-12-08T06:15:46.936Z,3.68
2022-12-08T06:19:50.089Z,3.67
2022-12-08T06:23:56.125Z,3.69
2022-12-08T06:27:59.166Z,3.66
2022-12-08T06:32:02.270Z,3.63
2022-12-08T06:36:06.385Z,3.63
2022-12-08T06:40:11.986Z,3.62
2022-12-08T06:44:15.093Z,3.60
2022-12-08T06:48:18.823Z,3.53
2022-12-08T06:52:21.828Z,3.50
2022-12-08T06:56:28.099Z,3.49
2022-12-08T07:00:31.221Z,3.46
2022-12-08T07:04:34.394Z,3.47
2022-12-08T07:08:37.708Z,3.44
2022-12-08T07:12:42.108Z,3.42
2022-12-08T07:16:45.185Z,3.43
2022-12-08T07:20:48.376Z,3.43
2022-12-08T07:24:51.402Z,3.43
2022-12-08T07:28:55.767Z,3.44
2022-12-08T07:32:59.134Z,3.42
2022-12-08T07:37:02.964Z,3.43
2022-12-08T07:41:06.892Z,3.43
2022-12-08T07:45:11.978Z,3.44
2022-12-08T07:49:15.013Z,3.41
2022-12-08T07:53:18.051Z,3.39
2022-12-08T07:57:21.101Z,3.37
2022-12-08T08:01:29.057Z,3.37
2022-12-08T08:05:33.323Z,3.38
2022-12-08T08:09:36.459Z,3.33
2022-12-08T08:13:39.504Z,3.32
2022-12-08T08:17:43.986Z,3.31
2022-12-08T08:21:47.050Z,3.32
2022-12-08T08:25:50.147Z,3.30
2022-12-08T08:29:53.343Z,3.32
2022-12-08T08:33:58.871Z,3.34
2022-12-08T08:38:02.466Z,3.40
2022-12-08T08:42:05.750Z,3.42
2022-12-08T08:46:09.986Z,3.46
2022-12-08T08:50:14.616Z,3.49
2022-12-08T08:54:17.647Z,3.50
2022-12-08T08:58:20.705Z,3.50
2022-12-08T09:02:24.116Z,3.50
2022-12-08T09:06:29.194Z,3.52
2022-12-08T09:10:32.584Z,3.51
2022-12-08T09:14:36.053Z,3.49
2022-12-08T09:18:39.144Z,3.42
2022-12-08T09:22:43.587Z,3.44
2022-12-08T09:26:47.171Z,3.48
2022-12-08T09:30:52.411Z,3.47
2022-12-08T09:34:55.541Z,3.49
2022-12-08T09:38:59.953Z,3.50
2022-12-08T09:43:10.997Z,3.56
2022-12-08T09:47:22.136Z,3.63
2022-12-08T09:51:27.226Z,3.62
2022-12-08T09:55:41.599Z,3.68
2022-12-08T09:59:48.904Z,3.76
2022-12-08T10:03:54.856Z,3.80
2022-12-08T10:08:08.592Z,3.88
2022-12-08T10:12:21.109Z,3.87
2022-12-08T10:16:30.177Z,3.93
2022-12-08T10:20:38.280Z,3.95
2022-12-08T10:24:47.370Z,3.91
2022-12-08T10:28:52.362Z,3.91
2022-12-08T10:32:55.772Z,4.02
2022-12-08T10:37:00.839Z,4.07
2022-12-08T10:41:07.765Z,4.03
2022-12-08T10:45:22.940Z,4.03
2022-12-08T10:49:32.344Z,4.19
2022-12-08T10:53:46.631Z,4.35
2022-12-08T10:57:50.081Z,4.43
2022-12-08T11:01:57.081Z,4.68
2022-12-08T11:06:08.946Z,5.05
2022-12-08T11:10:19.438Z,5.02
2022-12-08T11:14:26.186Z,4.96
2022-12-08T11:18:40.248Z,5.35
2022-12-08T11:22:44.865Z,5.33
2022-12-08T11:26:52.025Z,4.99
2022-12-08T11:31:02.102Z,5.06
2022-12-08T11:35:08.453Z,4.91
2022-12-08T11:39:14.172Z,4.93
2022-12-08T11:43:23.177Z,5.01
2022-12-08T11:47:32.752Z,5.13
2022-12-08T11:51:40.607Z,5.13
2022-12-08T11:55:50.103Z,5.40
2022-12-08T11:59:57.293Z,5.33
2022-12-08T12:04:17.257Z,5.30
2022-12-08T12:08:37.002Z,5.22
2022-12-08T12:12:55.028Z,5.39
2022-12-08T12:17:04.103Z,5.53
2022-12-08T12:21:12.325Z,5.65
2022-12-08T12:25:22.700Z,5.50
2022-12-08T12:29:29.281Z,5.40
2022-12-08T12:33:33.063Z,5.33
2022-12-08T12:37:39.934Z,5.30
2022-12-08T12:41:48.561Z,5.22
2022-12-08T12:45:52.011Z,5.33
2022-12-08T12:50:10.604Z,5.20
2022-12-08T12:54:24.490Z,5.20
2022-12-08T12:58:41.041Z,5.24
2022-12-08T13:02:49.135Z,5.22
2022-12-08T13:06:52.437Z,5.04
2022-12-08T13:11:02.045Z,5.17
2022-12-08T13:15:08.274Z,5.08
2022-12-08T13:19:15.965Z,5.10
2022-12-08T13:23:45.929Z,5.01
2022-12-08T13:27:55.572Z,5.04
2022-12-08T13:32:01.004Z,4.99
2022-12-08T13:36:15.994Z,5.03
2022-12-08T13:40:26.386Z,4.97
2022-12-08T13:45:18.453Z,5.04
2022-12-08T13:58:27.461Z,4.68
2022-12-08T14:02:36.258Z,4.65
2022-12-08T14:06:43.854Z,4.70
2022-12-08T14:10:53.864Z,4.71
2022-12-08T14:15:23.177Z,4.69
2022-12-08T14:19:28.143Z,4.71
2022-12-08T14:23:35.784Z,4.61
2022-12-08T14:27:39.648Z,4.57
2022-12-08T14:31:42.708Z,4.56
2022-12-08T14:35:51.369Z,4.55
2022-12-08T14:40:22.969Z,4.54
2022-12-08T14:44:26.657Z,4.55
2022-12-08T14:48:44.743Z,4.58
2022-12-08T14:52:47.991Z,4.52
2022-12-08T14:56:55.841Z,4.52
2022-12-08T15:01:00.989Z,4.51
2022-12-08T15:05:11.346Z,4.46
2022-12-08T15:09:19.142Z,4.45
2022-12-08T15:13:44.832Z,4.44
2022-12-08T15:17:52.271Z,4.42
2022-12-08T15:21:56.771Z,4.39
2022-12-08T15:26:00.860Z,4.40
2022-12-08T15:30:14.191Z,4.39
2022-12-08T15:34:17.304Z,4.37
2022-12-08T15:38:23.722Z,4.38
2022-12-08T15:42:26.862Z,4.34
2022-12-08T15:46:31.363Z,4.33
2022-12-08T15:50:34.486Z,4.30
2022-12-08T15:54:37.638Z,4.27
2022-12-08T15:58:57.337Z,4.27
2022-12-08T16:03:42.511Z,4.27
2022-12-08T16:07:30.032Z,4.16
2022-12-08T16:12:05.751Z,4.10
2022-12-08T16:16:17.887Z,4.12
2022-12-08T16:25:14.752Z,4.14
2022-12-08T16:29:22.898Z,4.18
2022-12-08T16:33:25.949Z,4.17
2022-12-08T16:37:29.564Z,4.22
2022-12-08T16:41:51.660Z,4.20
2022-12-08T16:45:54.754Z,4.19
2022-12-08T16:49:57.978Z,4.21
2022-12-08T16:54:01.230Z,4.20
2022-12-08T16:58:09.114Z,4.18
2022-12-08T17:02:16.271Z,4.18
2022-12-08T17:06:20.135Z,4.13
2022-12-08T17:10:25.956Z,4.13
2022-12-08T17:14:30.415Z,4.12
2022-12-08T17:18:33.517Z,4.11
2022-12-08T17:22:37.259Z,4.10
2022-12-08T17:26:40.375Z,4.13
2022-12-08T17:30:44.790Z,4.07
2022-12-08T17:34:48.032Z,4.02
2022-12-08T17:38:51.056Z,4.04
2022-12-08T17:42:54.065Z,4.04
2022-12-08T17:46:58.453Z,4.05
2022-12-08T17:51:01.597Z,4.02
2022-12-08T17:55:05.191Z,4.02
2022-12-08T17:59:08.209Z,3.97
2022-12-08T18:03:12.907Z,3.93
2022-12-08T18:07:15.920Z,3.84
2022-12-08T18:11:20.841Z,3.71
2022-12-08T18:15:23.952Z,3.58
2022-12-08T18:19:28.357Z,3.54
2022-12-08T18:23:31.390Z,3.56
2022-12-08T18:27:38.574Z,3.43
2022-12-08T18:31:44.569Z,3.36
2022-12-08T18:35:48.987Z,3.35
2022-12-08T18:39:52.703Z,3.29
2022-12-08T18:43:57.311Z,3.15
2022-12-08T18:48:00.417Z,3.10
2022-12-08T18:52:05.227Z,3.17
2022-12-08T18:56:09.448Z,3.16
2022-12-08T19:00:14.830Z,3.15
2022-12-08T19:04:28.470Z,3.04
2022-12-08T19:08:34.187Z,2.84
2022-12-08T19:12:37.251Z,2.70
2022-12-08T19:16:40.302Z,2.66
2022-12-08T19:20:43.355Z,2.52
2022-12-08T19:24:47.725Z,2.55
2022-12-08T19:28:50.863Z,2.69
2022-12-08T19:32:53.892Z,2.74
2022-12-08T19:36:56.960Z,2.79
2022-12-08T19:41:19.157Z,2.82
2022-12-08T19:45:23.351Z,2.85
2022-12-08T19:49:26.500Z,2.87
2022-12-08T19:53:29.595Z,2.98
2022-12-08T19:57:34.054Z,2.92
2022-12-08T20:01:38.403Z,2.95
2022-12-08T20:05:43.086Z,2.96
2022-12-08T20:09:46.108Z,2.95
2022-12-08T20:13:50.551Z,2.94
2022-12-08T20:17:53.927Z,2.94
2022-12-08T20:21:57.715Z,2.92
2022-12-08T20:26:00.760Z,2.90
2022-12-08T20:30:06.470Z,2.88
2022-12-08T20:34:15.081Z,2.85
2022-12-08T20:38:18.134Z,2.83
2022-12-08T20:42:21.235Z,2.83
2022-12-08T20:46:25.741Z,2.83
2022-12-08T20:50:29.318Z,2.80
2022-12-08T20:54:32.537Z,2.82
2022-12-08T20:58:35.629Z,2.83
2022-12-08T21:02:46.852Z,2.89
2022-12-08T21:06:50.270Z,2.87
2022-12-08T21:10:56.753Z,2.89
2022-12-08T21:14:59.923Z,2.92
2022-12-08T21:19:06.195Z,2.91
2022-12-08T21:23:09.532Z,2.90
2022-12-08T21:27:12.595Z,2.90
2022-12-08T21:31:17.882Z,2.88
2022-12-08T21:35:22.493Z,2.87
2022-12-08T21:39:25.650Z,2.85
2022-12-08T21:43:28.814Z,2.85
2022-12-08T21:47:32.053Z,2.82
2022-12-08T21:51:41.463Z,2.79
2022-12-08T21:55:44.688Z,2.77
2022-12-08T21:59:47.849Z,2.68
2022-12-08T22:03:51.193Z,2.55
2022-12-08T22:07:55.984Z,2.49
2022-12-08T22:11:59.111Z,2.39
2022-12-08T22:16:04.933Z,2.27
2022-12-08T22:20:11.619Z,2.07
2022-12-08T22:24:16.413Z,1.93
2022-12-08T22:28:19.677Z,1.97
2022-12-08T22:32:23.075Z,1.78
2022-12-08T22:36:30.068Z,1.74
2022-12-08T22:40:34.620Z,1.74
2022-12-08T22:44:37.838Z,1.63
2022-12-08T22:48:41.048Z,1.59
2022-12-08T22:52:44.227Z,1.50
2022-12-08T22:56:48.681Z,1.46
2022-12-08T23:00:52.025Z,1.43
2022-12-08T23:04:56.924Z,1.37
2022-12-08T23:09:00.273Z,1.31
2022-12-08T23:13:05.039Z,1.23
2022-12-08T23:17:08.216Z,1.10
2022-12-08T23:21:14.838Z,1.11
2022-12-08T23:25:19.098Z,1.08
2022-12-08T23:29:23.606Z,0.82
2022-12-08T23:33:26.760Z,0.67
2022-12-08T23:37:30.390Z,0.87
2022-12-08T23:41:33.707Z,0.86
2022-12-08T23:45:38.290Z,0.86
2022-12-08T23:49:41.573Z,0.90
2022-12-08T23:53:45.545Z,0.83
2022-12-08T23:57:48.595Z,0.74
